Time;durP1;ratioP1;P1;durP2;ratioP2;P2;SDS_P1;SDS_P2;PMS_P1;PMS_P2;Temp;Humidity;BMP_temperature;BMP_pressure;BME280_temperature;BME280_humidity;BME280_pressure;Samples;Min_cycle;Max_cycle;Signal;HPM_P1;HPM_P2
2022/12/02 05:18:50;;;;;;;40.30;22.60;;;3.60;98.60;;;;;;4642462;30;20581;-82
2022/12/02 05:21:57;;;;;;;38.00;21.87;;;3.70;98.80;;;;;;4647689;30;20322;-82
2022/12/02 05:30:59;;;;;;;37.77;22.03;;;3.70;98.60;;;;;;4639833;30;20314;-82
2022/12/02 05:36:37;;;;;;;40.50;22.70;;;3.80;98.50;;;;;;4647210;30;20223;-81
2022/12/02 05:39:16;;;;;;;41.20;22.50;;;3.80;98.50;;;;;;4646343;30;20313;-80
2022/12/02 05:41:47;;;;;;;39.13;22.27;;;3.80;99.00;;;;;;4646915;30;20673;-81
2022/12/02 05:44:24;;;;;;;41.00;22.17;;;4.00;98.10;;;;;;4648428;30;20220;-82
2022/12/02 05:46:59;;;;;;;41.30;23.00;;;4.10;97.50;;;;;;4687331;30;20225;-81
2022/12/02 05:49:47;;;;;;;41.37;22.07;;;4.00;97.70;;;;;;4694333;30;20210;-81
2022/12/02 05:52:29;;;;;;;39.67;22.60;;;3.90;98.30;;;;;;4686860;30;20600;-80
2022/12/02 05:55:04;;;;;;;40.13;23.53;;;3.90;98.50;;;;;;4767624;30;20232;-81
2022/12/02 05:57:39;;;;;;;45.30;24.47;;;3.80;98.30;;;;;;4765650;30;20314;-83
2022/12/02 06:00:25;;;;;;;37.80;21.67;;;3.80;98.60;;;;;;4768627;30;20212;-80
2022/12/02 06:02:57;;;;;;;39.57;22.77;;;3.70;98.70;;;;;;4765628;30;20587;-80
2022/12/02 06:05:29;;;;;;;41.70;22.50;;;3.80;98.60;;;;;;4754417;30;20246;-81
2022/12/02 06:08:01;;;;;;;39.63;22.37;;;3.90;98.50;;;;;;4766223;30;20230;-82
2022/12/02 06:10:30;;;;;;;39.03;22.00;;;3.90;98.10;;;;;;4764985;30;20224;-81
2022/12/02 06:13:02;;;;;;;45.00;23.23;;;3.80;98.30;;;;;;4765519;30;20717;-82
2022/12/02 06:15:37;;;;;;;38.43;22.17;;;3.80;98.50;;;;;;4762682;30;20212;-81
2022/12/02 06:18:14;;;;;;;43.70;23.87;;;3.80;98.70;;;;;;4761458;30;20219;-82
2022/12/02 06:20:43;;;;;;;45.50;23.80;;;3.90;98.60;;;;;;4762463;30;20220;-82
2022/12/02 06:23:14;;;;;;;42.63;24.07;;;3.80;98.40;;;;;;4762999;30;20697;-81
2022/12/02 06:25:44;;;;;;;41.77;22.90;;;3.70;98.40;;;;;;4765343;30;20246;-82
2022/12/02 06:28:21;;;;;;;41.37;23.47;;;3.70;98.80;;;;;;4767530;30;20295;-82
2022/12/02 06:30:55;;;;;;;40.47;22.53;;;3.80;99.00;;;;;;4760122;30;20220;-81
2022/12/02 06:33:27;;;;;;;40.30;23.67;;;3.90;98.80;;;;;;4769883;30;20232;-80
2022/12/02 06:35:55;;;;;;;40.17;22.47;;;4.00;98.40;;;;;;4762320;30;20226;-82
2022/12/02 06:38:29;;;;;;;41.10;22.60;;;4.10;98.00;;;;;;4763437;30;20854;-82
2022/12/02 06:41:04;;;;;;;39.47;22.07;;;4.10;97.60;;;;;;4764934;30;20215;-81
2022/12/02 06:49:44;;;;;;;44.20;23.03;;;4.30;97.20;;;;;;4667169;30;20285;-82
2022/12/02 06:52:24;;;;;;;40.20;23.03;;;4.20;97.50;;;;;;4705558;30;20300;-81
2022/12/02 06:57:56;;;;;;;41.50;23.53;;;4.40;97.00;;;;;;4709742;30;20249;-81
2022/12/02 07:00:26;;;;;;;44.70;22.50;;;4.40;97.00;;;;;;4698763;30;20793;-81
2022/12/02 07:02:57;;;;;;;42.03;22.80;;;4.30;96.80;;;;;;4734878;30;20817;-80
2022/12/02 07:05:24;;;;;;;40.00;21.33;;;4.30;96.80;;;;;;4733419;30;20295;-81
2022/12/02 07:07:51;;;;;;;39.23;21.83;;;4.30;97.10;;;;;;4718250;30;20249;-81
2022/12/02 07:10:21;;;;;;;42.17;23.30;;;4.30;96.80;;;;;;4714855;30;20219;-81
2022/12/02 07:12:48;;;;;;;41.00;23.33;;;4.20;96.40;;;;;;4712991;30;20214;-80
2022/12/02 07:15:25;;;;;;;38.83;22.33;;;4.10;97.50;;;;;;4714475;30;20814;-81
2022/12/02 07:17:53;;;;;;;41.50;22.03;;;4.20;97.20;;;;;;4713418;30;20216;-81
2022/12/02 07:20:31;;;;;;;40.63;21.87;;;4.30;97.00;;;;;;4714991;30;20692;-80
2022/12/02 07:22:59;;;;;;;43.43;23.57;;;4.40;96.70;;;;;;4716663;30;20217;-82
2022/12/02 07:25:36;;;;;;;44.03;23.33;;;4.40;96.40;;;;;;4713886;30;20580;-81
2022/12/02 07:28:16;;;;;;;41.87;22.70;;;4.20;96.50;;;;;;4717249;30;20300;-80
2022/12/02 07:30:43;;;;;;;41.73;23.57;;;4.10;97.20;;;;;;4711449;30;20588;-82
2022/12/02 07:33:10;;;;;;;43.60;22.83;;;4.10;97.50;;;;;;4709795;30;20308;-84
2022/12/02 07:35:38;;;;;;;40.27;22.13;;;4.10;97.90;;;;;;4713126;30;20249;-81
2022/12/02 07:38:05;;;;;;;37.20;22.27;;;4.20;97.40;;;;;;4717674;30;20236;-79
2022/12/02 07:40:32;;;;;;;44.20;22.60;;;4.20;97.50;;;;;;4713573;30;20731;-79
2022/12/02 07:42:59;;;;;;;39.57;22.80;;;4.30;97.50;;;;;;4738170;29;20307;-79
2022/12/02 07:45:27;;;;;;;40.27;21.87;;;4.30;97.20;;;;;;4780087;29;20223;-79
2022/12/02 07:47:54;;;;;;;39.17;21.60;;;4.30;97.30;;;;;;4782830;29;20209;-80
2022/12/02 07:50:21;;;;;;;41.23;22.63;;;4.40;97.10;;;;;;4783635;29;20215;-80
2022/12/02 07:52:52;;;;;;;42.37;22.33;;;4.50;96.70;;;;;;4770317;30;20634;-79
2022/12/02 07:55:19;;;;;;;39.13;21.00;;;4.40;96.60;;;;;;4784013;29;20444;-79
2022/12/02 07:57:46;;;;;;;40.30;22.47;;;4.40;96.50;;;;;;4853600;29;20694;-83
2022/12/02 08:00:14;;;;;;;40.63;22.57;;;4.40;97.20;;;;;;4854064;29;20212;-84
2022/12/02 08:02:44;;;;;;;38.27;22.13;;;4.30;97.50;;;;;;4850765;29;20665;-79
2022/12/02 08:05:12;;;;;;;38.27;21.60;;;4.30;97.20;;;;;;4852134;29;20654;-80
2022/12/02 08:07:39;;;;;;;41.53;21.87;;;4.40;96.90;;;;;;4852220;29;20346;-80
2022/12/02 08:10:08;;;;;;;41.23;21.10;;;4.50;96.50;;;;;;4854230;29;20216;-80
2022/12/02 08:12:35;;;;;;;35.97;20.90;;;4.50;96.20;;;;;;4853230;29;20907;-80
2022/12/02 08:15:02;;;;;;;38.37;21.60;;;4.50;96.40;;;;;;4849653;29;20232;-86
2022/12/02 08:17:29;;;;;;;36.77;21.77;;;4.50;96.40;;;;;;4837349;29;20238;-83
2022/12/02 08:19:56;;;;;;;38.73;21.80;;;4.40;96.80;;;;;;4852735;29;20598;-82
2022/12/02 08:22:24;;;;;;;39.67;22.00;;;4.40;96.80;;;;;;4887330;29;20258;-83
2022/12/02 08:24:54;;;;;;;38.87;22.37;;;4.40;96.80;;;;;;4883425;29;20684;-81
2022/12/02 08:27:24;;;;;;;40.03;22.60;;;4.30;97.00;;;;;;4895101;29;20234;-81
2022/12/02 08:30:03;;;;;;;42.27;22.93;;;4.20;97.30;;;;;;4909826;29;20915;-82
2022/12/02 08:32:30;;;;;;;43.03;22.47;;;4.10;97.50;;;;;;4956649;28;20224;-83
2022/12/02 08:34:56;;;;;;;36.57;20.43;;;4.20;97.50;;;;;;4977560;28;20227;-82
2022/12/02 08:37:30;;;;;;;40.93;21.83;;;4.30;97.50;;;;;;4980648;28;20286;-81
2022/12/02 08:39:57;;;;;;;38.20;22.00;;;4.30;97.20;;;;;;4967881;28;20204;-81
2022/12/02 08:42:25;;;;;;;37.97;22.50;;;4.30;97.20;;;;;;4984119;28;20694;-82
2022/12/02 08:44:52;;;;;;;39.57;22.40;;;4.30;97.20;;;;;;4986944;28;21127;-81
2022/12/02 08:47:19;;;;;;;40.23;21.87;;;4.30;97.50;;;;;;4989602;28;20220;-80
2022/12/02 08:49:46;;;;;;;43.93;23.13;;;4.20;97.30;;;;;;4990048;28;20318;-80
2022/12/02 08:52:13;;;;;;;35.57;21.23;;;4.30;97.00;;;;;;4982845;28;20376;-80
2022/12/02 08:54:42;;;;;;;40.47;22.40;;;4.30;97.00;;;;;;4986142;28;20259;-81
2022/12/02 08:57:09;;;;;;;38.73;22.33;;;4.30;97.10;;;;;;4978499;28;20212;-80
2022/12/02 08:59:43;;;;;;;41.00;22.07;;;4.30;96.90;;;;;;4987329;28;20655;-80
2022/12/02 09:02:10;;;;;;;40.77;22.13;;;4.30;97.20;;;;;;4984455;28;20220;-80
2022/12/02 09:04:37;;;;;;;35.87;21.50;;;4.30;97.00;;;;;;4988496;28;20289;-82
2022/12/02 09:07:04;;;;;;;36.87;21.20;;;4.40;96.50;;;;;;4993859;28;20268;-80
2022/12/02 09:09:31;;;;;;;36.63;21.20;;;4.40;96.40;;;;;;5048144;28;20230;-81
2022/12/02 09:11:59;;;;;;;40.47;21.67;;;4.40;96.80;;;;;;5024981;28;20285;-81
2022/12/02 09:14:25;;;;;;;37.13;21.43;;;4.40;96.70;;;;;;5046660;28;20309;-81
2022/12/02 09:16:54;;;;;;;36.37;21.53;;;4.50;96.50;;;;;;5047559;28;20741;-81
2022/12/02 09:19:21;;;;;;;43.57;21.57;;;4.70;95.80;;;;;;5043869;28;20725;-83
2022/12/02 09:21:48;;;;;;;37.20;22.43;;;4.70;95.00;;;;;;5042589;28;20230;-81
2022/12/02 09:24:15;;;;;;;40.40;22.43;;;4.60;95.60;;;;;;5048475;28;20297;-81
2022/12/02 09:26:41;;;;;;;37.27;21.13;;;4.60;95.70;;;;;;5042680;28;20212;-81
2022/12/02 09:29:08;;;;;;;40.97;22.20;;;4.70;95.90;;;;;;5047148;28;20205;-81
2022/12/02 09:31:35;;;;;;;38.27;21.53;;;4.80;95.70;;;;;;5044283;28;20206;-81
2022/12/02 09:34:04;;;;;;;36.17;20.87;;;4.80;95.10;;;;;;5041748;28;20304;-82
2022/12/02 09:36:31;;;;;;;42.27;20.90;;;4.80;95.00;;;;;;5043548;28;20198;-82
2022/12/02 09:38:58;;;;;;;39.10;21.30;;;4.90;95.10;;;;;;5050528;28;20266;-81
2022/12/02 09:41:25;;;;;;;36.60;21.37;;;5.00;95.10;;;;;;5046585;28;20202;-80
2022/12/02 09:43:53;;;;;;;41.03;21.97;;;5.10;94.70;;;;;;5045209;28;20206;-81
2022/12/02 09:46:28;;;;;;;39.30;22.50;;;5.10;94.60;;;;;;5043368;28;20233;-81
2022/12/02 09:48:55;;;;;;;42.00;21.63;;;4.90;95.10;;;;;;5038258;28;20711;-80
2022/12/02 09:51:24;;;;;;;41.07;21.77;;;4.90;95.60;;;;;;5048916;28;20330;-80
2022/12/02 09:53:51;;;;;;;41.00;22.90;;;4.80;95.50;;;;;;5043169;28;20263;-81
2022/12/02 09:56:23;;;;;;;35.13;21.33;;;4.80;96.30;;;;;;5029051;28;20296;-82
2022/12/02 09:58:54;;;;;;;37.47;21.40;;;4.90;95.70;;;;;;5045708;28;20250;-85
2022/12/02 10:01:21;;;;;;;36.43;21.53;;;4.90;95.10;;;;;;5042301;28;20230;-80
2022/12/02 10:03:50;;;;;;;40.73;22.57;;;4.80;95.40;;;;;;5045056;28;20206;-82
2022/12/02 10:06:21;;;;;;;39.80;23.00;;;4.90;95.40;;;;;;5046958;28;20233;-80
2022/12/02 10:08:50;;;;;;;43.60;22.20;;;4.90;95.60;;;;;;5045428;28;20294;-83
2022/12/02 10:11:23;;;;;;;37.63;21.57;;;4.90;95.80;;;;;;5041756;28;20702;-81
2022/12/02 10:14:01;;;;;;;39.20;22.73;;;5.00;95.60;;;;;;5043083;28;20209;-82
2022/12/02 10:16:29;;;;;;;38.93;22.10;;;5.00;95.30;;;;;;5040469;28;20675;-83
2022/12/02 10:19:00;;;;;;;37.50;22.27;;;4.90;95.50;;;;;;5038521;28;20294;-82
2022/12/02 10:21:27;;;;;;;37.70;21.57;;;4.80;96.10;;;;;;5044873;28;20294;-81
2022/12/02 10:23:58;;;;;;;35.63;22.13;;;4.80;96.30;;;;;;5043331;28;20205;-81
2022/12/02 10:26:26;;;;;;;36.60;21.43;;;4.70;96.40;;;;;;5039255;28;20250;-81
2022/12/02 10:29:04;;;;;;;39.37;22.57;;;4.80;96.60;;;;;;5034161;28;20786;-82
2022/12/02 10:31:31;;;;;;;36.87;21.43;;;4.90;96.10;;;;;;5011689;28;20232;-82
2022/12/02 10:34:00;;;;;;;41.10;23.57;;;4.90;96.00;;;;;;5029850;28;20240;-81
2022/12/02 10:36:32;;;;;;;41.90;24.20;;;4.80;96.20;;;;;;5030753;28;20226;-81
2022/12/02 10:39:21;;;;;;;44.50;24.23;;;4.70;96.50;;;;;;5030649;28;20250;-80
2022/12/02 10:41:50;;;;;;;38.20;21.83;;;4.60;96.70;;;;;;5036097;28;20320;-80
2022/12/02 10:44:18;;;;;;;42.17;24.83;;;4.60;96.80;;;;;;5029250;28;20317;-86
2022/12/02 10:46:45;;;;;;;39.60;23.07;;;4.40;97.10;;;;;;5034244;28;20695;-80
2022/12/02 10:49:24;;;;;;;40.90;23.17;;;4.40;97.50;;;;;;5035671;28;20221;-85
2022/12/02 10:51:51;;;;;;;39.97;22.10;;;4.40;97.50;;;;;;5041507;28;20231;-81
2022/12/02 10:54:25;;;;;;;40.93;22.63;;;4.40;97.70;;;;;;5043485;28;20321;-81
2022/12/02 10:56:53;;;;;;;39.27;22.70;;;4.40;97.20;;;;;;5042414;28;20206;-81
2022/12/02 10:59:20;;;;;;;39.30;22.90;;;4.30;97.60;;;;;;5037983;28;20208;-84
2022/12/02 11:01:48;;;;;;;36.37;22.67;;;4.30;97.90;;;;;;5039460;28;20222;-81
2022/12/02 11:04:15;;;;;;;38.13;21.57;;;4.30;97.80;;;;;;5043035;28;20287;-81
2022/12/02 11:06:44;;;;;;;37.33;21.53;;;4.40;97.60;;;;;;5047355;28;20205;-80
2022/12/02 11:09:16;;;;;;;37.60;22.23;;;4.60;96.40;;;;;;5041528;28;20271;-80
2022/12/02 11:11:44;;;;;;;42.33;22.23;;;4.60;95.90;;;;;;5039164;28;20206;-81
2022/12/02 11:14:13;;;;;;;36.97;20.60;;;4.50;96.40;;;;;;5039817;28;20210;-81
2022/12/02 11:17:05;;;;;;;37.60;21.27;;;4.40;97.00;;;;;;5044928;28;20236;-81
2022/12/02 11:19:43;;;;;;;38.40;20.80;;;4.30;97.10;;;;;;5043684;28;20202;-81
2022/12/02 11:22:49;;;;;;;36.03;21.03;;;4.20;97.60;;;;;;5040630;28;20297;-81
2022/12/02 11:25:53;;;;;;;36.17;21.07;;;4.20;97.50;;;;;;5039312;28;20308;-81
2022/12/02 11:28:53;;;;;;;36.13;20.60;;;4.10;97.50;;;;;;5044293;28;20677;-81
2022/12/02 11:31:25;;;;;;;36.57;20.50;;;4.00;97.50;;;;;;5042290;28;20218;-83
2022/12/02 11:34:04;;;;;;;36.13;20.60;;;4.00;97.70;;;;;;5039246;28;20290;-82
2022/12/02 11:36:36;;;;;;;35.47;19.43;;;4.10;97.50;;;;;;5043310;28;20650;-80
2022/12/02 11:39:06;;;;;;;34.20;19.73;;;4.10;97.30;;;;;;5044202;28;20237;-79
2022/12/02 11:42:11;;;;;;;32.47;19.90;;;4.00;97.40;;;;;;5043259;28;20194;-79
2022/12/02 11:44:40;;;;;;;32.73;19.43;;;4.00;97.30;;;;;;5041442;28;20205;-80
2022/12/02 11:47:22;;;;;;;36.77;20.53;;;3.90;97.70;;;;;;5044450;28;20284;-81
2022/12/02 11:49:49;;;;;;;31.97;19.03;;;3.90;97.50;;;;;;5042048;28;20292;-79
2022/12/02 11:52:22;;;;;;;34.83;19.70;;;3.90;97.70;;;;;;5043483;28;20759;-80
2022/12/02 11:54:55;;;;;;;36.07;20.77;;;3.90;97.80;;;;;;5037684;28;20245;-79
2022/12/02 11:57:27;;;;;;;36.90;19.97;;;3.90;97.90;;;;;;5032988;28;20225;-80
2022/12/02 12:00:01;;;;;;;35.47;20.53;;;3.90;97.90;;;;;;5043907;28;20308;-83
2022/12/02 12:02:28;;;;;;;38.93;20.60;;;4.00;98.00;;;;;;5044174;28;20596;-82
2022/12/02 12:05:04;;;;;;;37.83;19.97;;;4.20;97.50;;;;;;5043839;28;20209;-81
2022/12/02 12:07:42;;;;;;;33.90;20.30;;;4.20;97.10;;;;;;5039442;28;20213;-83
2022/12/02 12:10:24;;;;;;;37.77;20.87;;;4.20;96.70;;;;;;5042827;28;20310;-82
2022/12/02 12:13:13;;;;;;;37.90;20.83;;;4.10;97.20;;;;;;5043455;28;20638;-82
2022/12/02 12:16:06;;;;;;;35.83;20.77;;;4.00;97.80;;;;;;5043257;28;20227;-83
2022/12/02 12:18:45;;;;;;;39.27;20.63;;;4.00;98.10;;;;;;5023301;28;20193;-81
2022/12/02 12:21:13;;;;;;;35.60;20.60;;;4.00;98.40;;;;;;5049255;28;20228;-80
2022/12/02 12:23:42;;;;;;;35.50;19.10;;;4.10;98.60;;;;;;5048529;28;20735;-83
2022/12/02 12:26:30;;;;;;;35.37;20.40;;;4.20;97.80;;;;;;5044911;28;21990;-81
2022/12/02 12:29:02;;;;;;;34.23;19.77;;;4.20;97.70;;;;;;5045876;28;20202;-79
2022/12/02 12:31:31;;;;;;;34.53;20.07;;;4.40;97.60;;;;;;5046296;28;20202;-80
2022/12/02 12:33:57;;;;;;;35.67;20.03;;;4.50;97.40;;;;;;5031286;28;20221;-79
2022/12/02 12:36:25;;;;;;;33.80;19.53;;;4.60;97.30;;;;;;5038374;28;20226;-78
2022/12/02 12:39:19;;;;;;;32.10;18.67;;;4.70;96.90;;;;;;5038119;28;20585;-83
2022/12/02 12:41:59;;;;;;;32.90;18.93;;;4.80;96.30;;;;;;5048885;28;20243;-79
2022/12/02 12:44:26;;;;;;;33.13;20.17;;;4.60;96.60;;;;;;5029808;28;20647;-81
2022/12/02 12:46:55;;;;;;;38.50;20.67;;;4.50;97.10;;;;;;5034461;28;20221;-81
2022/12/02 12:49:22;;;;;;;32.47;19.23;;;4.60;96.90;;;;;;5034346;28;20855;-80
2022/12/02 12:51:49;;;;;;;33.90;19.27;;;4.60;96.60;;;;;;5037413;28;20232;-82
2022/12/02 12:54:17;;;;;;;32.93;19.63;;;4.50;96.60;;;;;;5034325;28;20229;-80
2022/12/02 12:56:43;;;;;;;31.60;17.63;;;4.40;96.80;;;;;;5036850;28;20229;-80
2022/12/02 12:59:10;;;;;;;30.93;18.97;;;4.20;97.40;;;;;;5029160;28;20607;-84
2022/12/02 13:01:37;;;;;;;29.33;17.97;;;4.10;97.20;;;;;;5034550;28;20225;-81
2022/12/02 13:04:06;;;;;;;29.47;16.93;;;4.00;97.50;;;;;;5027130;28;20705;-80
2022/12/02 13:06:35;;;;;;;28.87;17.13;;;4.00;97.90;;;;;;5029099;28;20230;-80
2022/12/02 13:09:02;;;;;;;28.63;17.73;;;4.00;98.10;;;;;;5032543;28;20750;-81
2022/12/02 13:11:29;;;;;;;28.00;16.90;;;4.10;97.50;;;;;;5034827;28;20218;-81
2022/12/02 13:13:56;;;;;;;28.27;17.67;;;4.30;97.30;;;;;;5033611;28;20328;-83
2022/12/02 13:16:23;;;;;;;30.17;17.90;;;4.20;97.30;;;;;;5030586;28;20237;-80
2022/12/02 13:18:50;;;;;;;30.50;18.80;;;4.30;97.50;;;;;;5029976;28;20222;-82
2022/12/02 13:21:19;;;;;;;31.87;18.57;;;4.40;97.50;;;;;;5033335;28;20646;-80
2022/12/02 13:23:45;;;;;;;30.70;18.17;;;4.30;97.60;;;;;;5032446;28;20708;-80
2022/12/02 13:26:17;;;;;;;33.37;18.80;;;4.30;97.80;;;;;;5035341;28;20677;-80
2022/12/02 13:28:45;;;;;;;33.63;19.30;;;4.30;97.70;;;;;;5031896;28;20236;-83
2022/12/02 13:31:11;;;;;;;30.53;19.00;;;4.20;98.00;;;;;;5034417;28;20312;-80
2022/12/02 13:33:39;;;;;;;31.37;18.63;;;4.30;97.80;;;;;;5031962;28;20272;-80
2022/12/02 13:36:06;;;;;;;26.70;16.93;;;4.30;97.70;;;;;;5033045;28;20234;-80
2022/12/02 13:38:35;;;;;;;27.77;17.40;;;4.30;97.60;;;;;;5031411;28;20706;-82
2022/12/02 13:41:02;;;;;;;29.67;17.40;;;4.20;97.30;;;;;;5031186;28;20230;-80
2022/12/02 13:43:28;;;;;;;26.47;16.90;;;4.10;97.50;;;;;;5032383;28;20224;-80
2022/12/02 13:45:55;;;;;;;28.37;16.47;;;4.10;97.50;;;;;;5031127;28;20909;-82
2022/12/02 13:48:22;;;;;;;26.73;16.33;;;4.10;97.80;;;;;;5030395;28;20225;-85
2022/12/02 13:50:49;;;;;;;27.33;16.20;;;4.10;97.90;;;;;;5028918;28;20241;-80
2022/12/02 13:53:17;;;;;;;25.93;16.30;;;4.10;97.30;;;;;;5029386;28;20633;-81
2022/12/02 13:55:45;;;;;;;28.57;16.30;;;3.90;97.50;;;;;;5032030;28;20229;-80
2022/12/02 13:58:12;;;;;;;27.60;17.17;;;3.70;98.00;;;;;;5034229;28;20316;-81
2022/12/02 14:00:39;;;;;;;29.00;16.53;;;3.70;98.40;;;;;;5030999;28;20716;-80
2022/12/02 14:03:06;;;;;;;28.03;16.27;;;3.70;98.70;;;;;;5008839;28;20236;-80
2022/12/02 14:05:33;;;;;;;26.60;16.97;;;3.60;98.80;;;;;;5027270;28;20218;-80
2022/12/02 14:08:00;;;;;;;27.03;17.07;;;3.90;99.20;;;;;;5020056;28;20226;-80
2022/12/02 14:10:27;;;;;;;26.37;17.37;;;3.90;98.60;;;;;;5032214;28;20312;-80
2022/12/02 14:13:01;;;;;;;27.07;16.80;;;4.10;98.20;;;;;;5034206;28;20232;-80
2022/12/02 14:15:29;;;;;;;30.47;16.87;;;4.10;98.20;;;;;;5033808;28;20233;-81
2022/12/02 14:17:55;;;;;;;25.27;16.57;;;4.20;97.80;;;;;;5032262;28;20292;-80
2022/12/02 14:20:22;;;;;;;28.57;17.63;;;4.10;97.80;;;;;;5028468;28;20321;-80
2022/12/02 14:22:49;;;;;;;28.17;16.93;;;4.00;98.10;;;;;;5021350;28;20367;-81
2022/12/02 14:25:18;;;;;;;24.50;15.37;;;4.00;98.20;;;;;;5025464;28;20604;-81
2022/12/02 14:27:44;;;;;;;24.80;15.90;;;4.10;97.80;;;;;;5025101;28;20869;-80
2022/12/02 14:30:20;;;;;;;25.60;17.90;;;4.00;97.70;;;;;;5019460;28;20627;-79
2022/12/02 14:32:47;;;;;;;25.47;15.00;;;3.90;98.10;;;;;;5027679;28;20801;-79
2022/12/02 14:35:14;;;;;;;24.73;14.77;;;3.90;98.20;;;;;;5024624;28;20348;-80
2022/12/02 14:37:53;;;;;;;25.57;16.20;;;3.90;98.60;;;;;;5024819;28;20838;-82
2022/12/02 14:40:27;;;;;;;24.50;15.57;;;4.00;98.70;;;;;;5026289;28;20312;-80
2022/12/02 14:42:55;;;;;;;25.30;15.97;;;3.90;98.80;;;;;;5026835;28;20232;-81
2022/12/02 14:45:31;;;;;;;26.37;16.33;;;4.00;99.30;;;;;;5029190;28;20713;-80
2022/12/02 14:48:02;;;;;;;22.47;15.50;;;4.00;98.90;;;;;;5030012;28;20608;-80
2022/12/02 14:50:33;;;;;;;25.03;15.30;;;4.10;98.60;;;;;;5031469;28;20598;-79
2022/12/02 14:53:09;;;;;;;26.43;15.80;;;4.20;98.10;;;;;;5031815;28;20658;-80
2022/12/02 14:55:47;;;;;;;24.80;14.77;;;4.00;97.90;;;;;;5034766;28;20288;-80
2022/12/02 14:58:27;;;;;;;22.50;14.40;;;3.80;98.20;;;;;;5034292;28;20237;-81
2022/12/02 15:06:25;;;;;;;22.23;14.77;;;3.60;98.80;;;;;;5036198;28;20229;-80
2022/12/02 15:09:10;;;;;;;24.70;15.37;;;3.70;99.10;;;;;;5035603;28;20349;-80
2022/12/02 15:11:50;;;;;;;23.67;14.47;;;3.70;99.00;;;;;;5026318;28;20455;-80
2022/12/02 15:14:55;;;;;;;25.73;15.50;;;3.70;98.50;;;;;;5026026;28;20221;-83
2022/12/02 15:17:27;;;;;;;22.90;14.97;;;3.70;98.60;;;;;;4960167;28;20258;-84
2022/12/02 15:20:18;;;;;;;93.57;60.53;;;3.70;98.80;;;;;;4960176;28;20226;-84
2022/12/02 15:25:27;;;;;;;33.37;20.93;;;4.40;99.90;;;;;;4963269;28;20259;-84
2022/12/02 15:27:54;;;;;;;27.70;17.87;;;4.60;99.90;;;;;;4959180;28;20747;-79
2022/12/02 15:30:21;;;;;;;24.53;15.70;;;4.50;98.00;;;;;;4968375;28;20778;-79
2022/12/02 15:32:50;;;;;;;21.50;13.33;;;4.30;98.70;;;;;;4969232;28;20228;-80
2022/12/02 15:35:18;;;;;;;22.87;13.83;;;4.80;97.20;;;;;;4967952;28;20227;-80
2022/12/02 15:37:45;;;;;;;22.80;14.03;;;4.50;96.00;;;;;;4964876;28;20271;-84
2022/12/02 15:40:15;;;;;;;24.30;16.20;;;4.30;97.20;;;;;;4965132;28;20232;-81
2022/12/02 15:42:46;;;;;;;22.33;14.90;;;4.30;98.90;;;;;;4960942;28;20235;-81
2022/12/02 15:45:17;;;;;;;21.27;14.37;;;4.70;97.80;;;;;;4965706;28;20331;-81
2022/12/02 15:47:50;;;;;;;21.53;14.30;;;4.60;97.60;;;;;;4980282;28;20312;-79
2022/12/02 15:50:36;;;;;;;21.47;13.77;;;4.70;96.60;;;;;;5028608;28;20253;-81
2022/12/02 15:55:46;;;;;;;20.73;14.23;;;5.00;94.90;;;;;;5014135;28;20739;-81
2022/12/02 15:58:21;;;;;;;20.47;13.40;;;4.70;95.00;;;;;;5010568;28;20224;-82
2022/12/02 16:01:08;;;;;;;20.30;12.90;;;4.40;95.50;;;;;;5027149;28;20275;-81
2022/12/02 16:03:45;;;;;;;18.77;13.20;;;4.20;96.10;;;;;;5029437;28;20236;-81
2022/12/02 16:09:03;;;;;;;23.70;14.20;;;3.90;97.50;;;;;;5028974;28;20591;-81
2022/12/02 16:11:30;;;;;;;20.67;13.90;;;3.70;98.30;;;;;;5025695;28;20249;-83
2022/12/02 16:14:05;;;;;;;20.13;12.50;;;3.70;98.80;;;;;;5037556;28;20223;-81
2022/12/02 16:19:36;;;;;;;19.77;12.40;;;3.70;98.80;;;;;;5039264;28;20213;-82
2022/12/02 16:22:39;;;;;;;20.43;12.27;;;3.70;99.00;;;;;;5033620;28;20200;-82
2022/12/02 16:25:11;;;;;;;19.20;11.87;;;3.70;99.10;;;;;;5040744;28;20204;-81
2022/12/02 16:27:43;;;;;;;18.77;12.23;;;3.70;98.60;;;;;;5039591;28;20199;-82
2022/12/02 16:30:29;;;;;;;18.60;12.37;;;3.70;98.60;;;;;;5044998;28;20206;-81
2022/12/02 16:33:00;;;;;;;17.43;12.17;;;3.60;98.90;;;;;;5039628;28;20754;-83
2022/12/02 16:35:37;;;;;;;19.17;12.40;;;3.50;98.90;;;;;;5044536;28;20568;-81
2022/12/02 16:38:12;;;;;;;17.90;12.00;;;3.40;99.40;;;;;;5038228;28;20243;-79
2022/12/02 16:40:39;;;;;;;18.63;12.03;;;3.40;99.90;;;;;;5040576;28;20276;-80
2022/12/02 16:43:10;;;;;;;17.73;11.50;;;3.50;99.90;;;;;;5039707;28;20198;-79
2022/12/02 16:45:41;;;;;;;19.97;13.10;;;3.50;99.90;;;;;;5044368;28;20233;-80
2022/12/02 16:48:13;;;;;;;19.80;12.43;;;3.40;99.90;;;;;;5046860;28;20214;-81
2022/12/02 16:50:40;;;;;;;18.17;12.30;;;3.50;99.90;;;;;;5047307;28;20205;-80
2022/12/02 16:53:10;;;;;;;21.13;13.50;;;3.50;99.90;;;;;;5043813;28;20221;-80
2022/12/02 16:55:38;;;;;;;19.50;12.60;;;3.50;99.90;;;;;;5046670;28;20285;-80
2022/12/02 16:58:06;;;;;;;18.50;12.20;;;3.50;99.90;;;;;;5042813;28;20222;-83
2022/12/02 17:03:22;;;;;;;18.07;12.57;;;3.60;99.90;;;;;;5044348;28;20249;-79
2022/12/02 17:06:05;;;;;;;19.77;12.50;;;3.60;99.70;;;;;;5044564;28;20219;-80
2022/12/02 17:08:34;;;;;;;19.93;13.27;;;3.60;99.90;;;;;;5046323;28;20206;-79
2022/12/02 17:11:03;;;;;;;21.00;13.60;;;3.60;99.60;;;;;;5051564;28;20207;-79
2022/12/02 17:13:30;;;;;;;20.43;13.73;;;3.70;99.90;;;;;;5048973;28;20198;-79
2022/12/02 17:16:01;;;;;;;19.10;13.03;;;3.70;99.20;;;;;;5050201;28;20209;-79
2022/12/02 17:18:28;;;;;;;20.43;13.67;;;3.70;99.20;;;;;;5052859;28;20236;-79
2022/12/02 17:20:56;;;;;;;19.97;13.13;;;3.70;99.10;;;;;;5049531;28;20207;-80
2022/12/02 17:23:24;;;;;;;22.40;13.50;;;3.60;99.10;;;;;;5048576;28;20210;-80
2022/12/02 17:25:55;;;;;;;21.57;14.20;;;3.60;99.20;;;;;;5044992;28;20728;-79
2022/12/02 17:28:31;;;;;;;19.70;13.27;;;3.50;99.40;;;;;;5048206;28;20214;-79
2022/12/02 17:30:59;;;;;;;19.77;13.60;;;3.50;99.90;;;;;;5046449;28;20212;-82
2022/12/02 17:33:26;;;;;;;23.20;14.47;;;3.60;99.80;;;;;;5046016;28;20209;-80
2022/12/02 17:35:54;;;;;;;22.73;14.47;;;3.60;99.60;;;;;;5030342;28;20272;-80
2022/12/02 17:38:24;;;;;;;25.30;14.60;;;3.60;99.80;;;;;;5045651;28;20237;-79
2022/12/02 17:41:09;;;;;;;22.03;14.10;;;3.60;99.90;;;;;;5029947;28;20666;-79
2022/12/02 17:43:47;;;;;;;22.57;14.63;;;3.60;99.90;;;;;;5039404;28;20751;-79
2022/12/02 17:46:15;;;;;;;25.47;15.40;;;3.50;99.90;;;;;;5041394;28;20211;-79
2022/12/02 17:49:01;;;;;;;24.93;15.00;;;3.40;99.90;;;;;;5044165;28;20220;-88
2022/12/02 17:51:29;;;;;;;22.70;14.27;;;3.40;99.90;;;;;;5047427;28;20237;-79
2022/12/02 17:54:14;;;;;;;22.40;13.87;;;3.40;99.90;;;;;;5049720;28;20226;-80
2022/12/02 17:56:57;;;;;;;20.17;13.20;;;3.60;99.90;;;;;;5044349;28;20226;-80
2022/12/02 17:59:27;;;;;;;21.13;13.93;;;3.60;99.90;;;;;;5046564;28;20292;-79
2022/12/02 18:01:56;;;;;;;23.07;14.37;;;3.50;99.90;;;;;;5048363;28;20225;-82
2022/12/02 18:07:14;;;;;;;22.50;14.50;;;3.30;99.90;;;;;;5044341;28;20249;-79
2022/12/02 18:09:45;;;;;;;19.90;13.80;;;3.50;99.90;;;;;;5046865;28;20201;-80
2022/12/02 18:12:17;;;;;;;20.47;13.37;;;3.60;99.90;;;;;;5048010;28;20233;-80
2022/12/02 18:14:53;;;;;;;20.43;14.00;;;3.60;99.90;;;;;;5048431;28;20241;-79
2022/12/02 18:17:30;;;;;;;21.03;13.77;;;3.70;99.90;;;;;;5045922;28;20233;-79
2022/12/02 18:20:10;;;;;;;21.63;13.30;;;3.60;99.90;;;;;;5049010;28;20206;-79
2022/12/02 18:22:46;;;;;;;19.40;12.93;;;3.60;99.90;;;;;;5004373;28;20206;-80
2022/12/02 18:25:14;;;;;;;20.80;13.03;;;3.60;99.90;;;;;;5044776;28;20642;-79
2022/12/02 18:30:50;;;;;;;19.97;13.50;;;3.70;99.50;;;;;;5046664;28;20206;-79
2022/12/02 18:33:20;;;;;;;20.33;13.63;;;3.70;99.40;;;;;;5044265;28;20237;-79
2022/12/02 18:35:51;;;;;;;22.67;14.17;;;3.50;99.50;;;;;;5044056;28;20229;-79
2022/12/02 18:38:19;;;;;;;20.80;13.80;;;3.30;99.90;;;;;;5046007;28;20721;-79
2022/12/02 18:40:53;;;;;;;20.47;13.73;;;3.40;99.90;;;;;;5042582;28;20210;-79
2022/12/02 18:43:32;;;;;;;20.20;13.73;;;3.40;99.90;;;;;;5047405;28;20200;-80
2022/12/02 18:48:49;;;;;;;22.30;13.00;;;3.30;99.90;;;;;;5033645;28;20213;-80
2022/12/02 18:51:23;;;;;;;18.93;13.03;;;3.40;99.90;;;;;;5043882;28;20209;-79
2022/12/02 18:54:08;;;;;;;19.60;12.77;;;3.40;99.90;;;;;;5043696;28;20292;-79
2022/12/02 18:57:01;;;;;;;19.77;14.00;;;3.60;99.90;;;;;;5047088;28;20197;-79
2022/12/02 18:59:49;;;;;;;20.63;12.80;;;3.60;99.90;;;;;;5044729;28;20221;-81
2022/12/02 19:05:29;;;;;;;20.33;12.93;;;3.30;99.90;;;;;;5007780;28;20351;-80
2022/12/02 19:08:18;;;;;;;20.90;12.83;;;3.30;99.90;;;;;;5008688;28;20211;-79